Time;durP1;ratioP1;P1;durP2;ratioP2;P2;SDS_P1;SDS_P2;PMS_P1;PMS_P2;Temp;Humidity;BMP_temperature;BMP_pressure;BME280_temperature;BME280_humidity;BME280_pressure;Samples;Min_cycle;Max_cycle;Signal;HPM_P1;HPM_P2
2023/01/07 00:01:21;;;;;;;1.57;1.20;;;12.20;99.90;;;;;;7386372;19;20202;-73
2023/01/07 00:03:48;;;;;;;1.77;1.20;;;12.30;99.90;;;;;;7391130;19;20139;-74
2023/01/07 00:06:20;;;;;;;1.30;1.20;;;12.20;99.90;;;;;;7391986;19;20138;-73
2023/01/07 00:08:47;;;;;;;1.23;1.13;;;12.30;99.90;;;;;;7388020;19;20218;-74
2023/01/07 00:11:22;;;;;;;1.00;0.90;;;12.30;99.90;;;;;;7391560;19;20146;-73
2023/01/07 00:13:50;;;;;;;1.33;1.10;;;12.30;99.90;;;;;;7387249;19;20153;-73
2023/01/07 00:16:18;;;;;;;1.47;0.90;;;12.30;99.90;;;;;;7390318;19;20138;-74
2023/01/07 00:18:44;;;;;;;1.93;1.00;;;12.20;99.90;;;;;;7390349;19;20139;-73
2023/01/07 00:21:15;;;;;;;1.27;0.98;;;12.10;99.90;;;;;;7390041;19;20606;-73
2023/01/07 00:23:42;;;;;;;1.10;1.00;;;12.20;99.90;;;;;;7389993;19;20137;-74
2023/01/07 00:26:11;;;;;;;1.40;1.00;;;12.20;99.90;;;;;;7390308;19;20145;-73
2023/01/07 00:28:39;;;;;;;2.00;0.90;;;12.10;99.90;;;;;;7390716;19;20610;-74
2023/01/07 00:31:26;;;;;;;1.97;1.13;;;12.10;99.90;;;;;;7391425;19;20516;-75
2023/01/07 00:36:22;;;;;;;1.20;0.83;;;12.00;99.90;;;;;;7390110;19;20547;-72
2023/01/07 00:38:54;;;;;;;3.57;1.10;;;12.20;99.90;;;;;;7390663;19;20202;-74
2023/01/07 00:41:21;;;;;;;3.23;1.30;;;12.20;99.90;;;;;;7386821;19;20507;-73
2023/01/07 00:43:46;;;;;;;1.83;1.10;;;12.30;99.90;;;;;;7388805;19;20138;-73
2023/01/07 00:46:14;;;;;;;2.47;1.27;;;12.30;99.90;;;;;;7389544;19;20146;-74
2023/01/07 00:48:41;;;;;;;2.20;1.47;;;12.30;99.90;;;;;;7389645;19;20264;-74
2023/01/07 00:51:09;;;;;;;1.73;1.10;;;12.20;99.90;;;;;;7389952;19;20131;-73
2023/01/07 00:53:35;;;;;;;3.70;1.00;;;12.30;99.90;;;;;;7394841;19;20167;-74
2023/01/07 00:56:01;;;;;;;1.43;1.27;;;12.20;99.90;;;;;;7390454;19;20509;-73
2023/01/07 00:58:27;;;;;;;1.50;1.00;;;12.20;99.90;;;;;;7391571;19;20133;-73
2023/01/07 01:01:00;;;;;;;3.20;1.10;;;12.20;99.90;;;;;;7387451;19;20580;-73
2023/01/07 01:03:28;;;;;;;1.73;1.03;;;12.30;99.90;;;;;;7389242;19;20190;-74
2023/01/07 01:05:54;;;;;;;1.23;1.00;;;12.20;99.90;;;;;;7392211;19;20533;-72
2023/01/07 01:08:21;;;;;;;1.83;1.20;;;12.30;99.90;;;;;;7390610;19;20202;-74
2023/01/07 01:10:47;;;;;;;1.70;1.07;;;12.30;99.90;;;;;;7389956;19;20146;-73
2023/01/07 01:13:16;;;;;;;1.83;1.10;;;12.30;99.90;;;;;;7388272;19;20143;-72
2023/01/07 01:15:44;;;;;;;1.73;1.13;;;12.20;99.90;;;;;;7390841;19;20205;-73
2023/01/07 01:18:10;;;;;;;1.10;1.00;;;12.20;99.90;;;;;;7391485;19;20138;-73
2023/01/07 01:20:36;;;;;;;1.07;0.97;;;12.20;99.90;;;;;;7381367;19;20131;-75
2023/01/07 01:23:02;;;;;;;2.43;1.30;;;12.20;99.90;;;;;;7389218;19;20177;-75
2023/01/07 01:25:28;;;;;;;1.23;1.00;;;12.20;99.90;;;;;;7390610;19;20142;-75
2023/01/07 01:27:54;;;;;;;1.70;1.10;;;12.30;99.90;;;;;;7387756;19;20161;-73
2023/01/07 01:30:20;;;;;;;2.33;1.30;;;12.30;99.90;;;;;;7390187;19;20607;-74
2023/01/07 01:32:45;;;;;;;4.23;1.30;;;12.30;99.90;;;;;;7387599;19;20142;-74
2023/01/07 01:35:11;;;;;;;1.20;0.83;;;12.30;99.90;;;;;;7389950;19;20151;-74
2023/01/07 01:37:37;;;;;;;1.70;1.20;;;12.30;99.90;;;;;;7389860;19;20165;-75
2023/01/07 01:40:05;;;;;;;1.30;1.10;;;12.30;99.90;;;;;;7385490;19;20153;-72
2023/01/07 01:42:31;;;;;;;1.23;1.13;;;12.30;99.90;;;;;;7387298;19;20172;-74
2023/01/07 01:44:59;;;;;;;1.63;1.30;;;12.30;99.90;;;;;;7387067;19;20157;-72
2023/01/07 01:47:41;;;;;;;1.20;1.00;;;12.20;99.90;;;;;;7387976;19;20497;-74
2023/01/07 01:50:14;;;;;;;1.17;1.07;;;12.20;99.90;;;;;;7385288;19;20154;-73
2023/01/07 01:53:15;;;;;;;2.47;1.10;;;12.20;99.90;;;;;;7386586;19;20166;-73
2023/01/07 01:55:47;;;;;;;3.07;1.10;;;12.20;99.90;;;;;;7389647;19;20156;-74
2023/01/07 01:58:19;;;;;;;2.20;1.10;;;12.20;99.90;;;;;;7387657;19;20131;-74
2023/01/07 02:00:45;;;;;;;1.47;1.00;;;12.20;99.90;;;;;;7387695;19;20526;-74
2023/01/07 02:03:23;;;;;;;1.20;1.03;;;12.10;99.90;;;;;;7388038;19;20164;-74
2023/01/07 02:05:50;;;;;;;1.00;0.77;;;12.10;99.90;;;;;;7387095;19;20243;-73
2023/01/07 02:08:20;;;;;;;2.07;0.70;;;12.00;99.90;;;;;;7391673;19;20146;-74
2023/01/07 02:10:47;;;;;;;1.20;0.80;;;12.00;99.90;;;;;;7388103;19;20152;-74
2023/01/07 02:13:46;;;;;;;1.17;0.90;;;12.00;99.90;;;;;;7386711;19;20662;-73
2023/01/07 02:16:24;;;;;;;0.70;0.70;;;12.00;99.90;;;;;;7390419;19;20139;-73
2023/01/07 02:19:22;;;;;;;0.65;0.57;;;11.90;99.90;;;;;;7387857;19;20176;-74
2023/01/07 02:22:06;;;;;;;2.07;0.60;;;12.00;99.90;;;;;;7389552;19;20151;-73
2023/01/07 02:25:07;;;;;;;1.17;0.87;;;12.00;99.90;;;;;;7387203;19;20127;-73
2023/01/07 02:27:52;;;;;;;0.70;0.70;;;12.00;99.90;;;;;;7389389;19;20141;-73
2023/01/07 02:30:36;;;;;;;1.10;0.87;;;12.10;99.90;;;;;;7388412;19;20545;-74
2023/01/07 02:33:19;;;;;;;0.77;0.60;;;12.00;99.90;;;;;;7387502;19;20182;-72
2023/01/07 02:36:16;;;;;;;2.00;0.80;;;12.00;99.90;;;;;;7386399;19;20167;-72
2023/01/07 02:39:15;;;;;;;2.23;0.70;;;12.00;99.90;;;;;;7388237;19;20666;-75
2023/01/07 02:41:53;;;;;;;2.00;1.30;;;11.90;99.90;;;;;;7385526;19;20151;-74
2023/01/07 02:44:27;;;;;;;4.37;1.47;;;11.90;99.90;;;;;;7384330;19;20565;-73
2023/01/07 02:47:11;;;;;;;1.30;0.70;;;12.00;99.90;;;;;;7389492;19;20135;-74
2023/01/07 02:49:37;;;;;;;1.37;0.80;;;12.00;99.90;;;;;;7387254;19;20574;-74
2023/01/07 02:52:20;;;;;;;0.70;0.60;;;11.80;99.90;;;;;;7387315;19;20150;-74
2023/01/07 02:55:11;;;;;;;0.87;0.70;;;11.90;99.90;;;;;;7388792;19;20131;-75
2023/01/07 02:58:00;;;;;;;0.90;0.80;;;11.90;99.90;;;;;;7393197;19;20134;-73
2023/01/07 03:00:37;;;;;;;0.70;0.60;;;11.90;99.90;;;;;;7388380;19;20147;-72
2023/01/07 03:03:25;;;;;;;0.90;0.60;;;11.90;99.90;;;;;;7393890;19;20130;-75
2023/01/07 03:06:02;;;;;;;0.50;0.50;;;11.90;99.90;;;;;;7394257;19;20551;-74
2023/01/07 03:08:45;;;;;;;0.43;0.33;;;12.00;99.90;;;;;;7392820;19;20222;-74
2023/01/07 03:11:11;;;;;;;0.50;0.50;;;12.00;99.90;;;;;;7392729;19;20147;-74
2023/01/07 03:13:47;;;;;;;0.53;0.50;;;11.90;99.90;;;;;;7391404;19;20142;-73
2023/01/07 03:16:35;;;;;;;0.50;0.50;;;11.90;99.90;;;;;;7393661;19;20147;-74
2023/01/07 03:19:14;;;;;;;0.33;0.33;;;11.90;99.90;;;;;;7393529;19;20155;-73
2023/01/07 03:21:40;;;;;;;0.40;0.40;;;11.90;99.90;;;;;;7391504;19;20143;-72
2023/01/07 03:24:07;;;;;;;1.30;0.63;;;11.90;99.90;;;;;;7391661;19;20140;-73
2023/01/07 03:26:45;;;;;;;0.67;0.60;;;11.90;99.90;;;;;;7392820;19;20545;-73
2023/01/07 03:29:14;;;;;;;0.80;0.60;;;11.90;99.90;;;;;;7391652;19;20486;-74
2023/01/07 03:32:00;;;;;;;0.50;0.50;;;11.90;99.90;;;;;;7390079;19;20147;-72
2023/01/07 03:34:27;;;;;;;0.90;0.50;;;12.00;99.90;;;;;;7393359;19;20155;-73
2023/01/07 03:36:58;;;;;;;0.40;0.40;;;12.00;99.90;;;;;;7391843;19;20158;-73
2023/01/07 03:39:28;;;;;;;0.70;0.60;;;12.00;99.90;;;;;;7393325;19;20158;-74
2023/01/07 03:44:38;;;;;;;0.67;0.50;;;12.10;99.90;;;;;;7389908;19;20159;-73
2023/01/07 03:47:05;;;;;;;0.60;0.60;;;11.90;99.90;;;;;;7390727;19;20156;-74
2023/01/07 03:49:33;;;;;;;0.70;0.70;;;12.00;99.90;;;;;;7392329;19;20138;-74
2023/01/07 03:51:59;;;;;;;0.60;0.60;;;12.00;99.90;;;;;;7383813;19;20134;-73
2023/01/07 03:54:24;;;;;;;0.60;0.60;;;12.00;99.90;;;;;;7389790;19;20153;-73
2023/01/07 03:56:50;;;;;;;0.73;0.63;;;12.00;99.90;;;;;;7393667;19;20134;-73
2023/01/07 03:59:16;;;;;;;0.43;0.43;;;11.90;99.90;;;;;;7390139;19;20123;-74
2023/01/07 04:01:42;;;;;;;1.00;0.77;;;11.90;99.90;;;;;;7390303;19;20146;-73
2023/01/07 04:04:08;;;;;;;0.50;0.50;;;11.90;99.90;;;;;;7389731;19;20218;-74
2023/01/07 04:06:33;;;;;;;0.60;0.60;;;11.90;99.90;;;;;;7389977;19;20135;-74
2023/01/07 04:08:59;;;;;;;0.70;0.67;;;12.00;99.90;;;;;;7390375;19;20141;-73
2023/01/07 04:11:25;;;;;;;1.47;0.70;;;11.90;99.90;;;;;;7391671;19;20158;-73
2023/01/07 04:13:51;;;;;;;1.00;0.70;;;11.90;99.90;;;;;;7389547;19;20174;-74
2023/01/07 04:16:16;;;;;;;0.80;0.70;;;11.90;99.90;;;;;;7389986;19;20171;-74
2023/01/07 04:18:42;;;;;;;1.00;0.80;;;12.00;99.90;;;;;;7391530;19;20623;-74
2023/01/07 04:21:08;;;;;;;1.00;0.60;;;11.90;99.90;;;;;;7381311;19;20158;-73
2023/01/07 04:23:34;;;;;;;0.70;0.50;;;11.90;99.90;;;;;;7391049;19;20143;-73
2023/01/07 04:25:59;;;;;;;0.70;0.60;;;11.80;99.90;;;;;;7389201;19;20254;-74
2023/01/07 04:28:25;;;;;;;1.00;0.60;;;11.90;99.90;;;;;;7387758;19;20142;-72
2023/01/07 04:30:51;;;;;;;1.07;0.70;;;11.90;99.90;;;;;;7389900;19;20138;-74
2023/01/07 04:33:17;;;;;;;0.87;0.70;;;12.00;99.90;;;;;;7389008;19;20157;-73
2023/01/07 04:35:45;;;;;;;0.80;0.57;;;12.00;99.90;;;;;;7391092;19;20182;-73
2023/01/07 04:38:11;;;;;;;0.87;0.73;;;12.00;99.90;;;;;;7390178;19;20137;-73
2023/01/07 04:40:37;;;;;;;0.57;0.57;;;12.00;99.90;;;;;;7388301;19;20139;-74
2023/01/07 04:43:02;;;;;;;2.50;1.07;;;12.00;99.90;;;;;;7383970;19;20193;-73
2023/01/07 04:45:28;;;;;;;0.90;0.80;;;12.00;99.90;;;;;;7389528;19;20159;-73
2023/01/07 04:47:55;;;;;;;1.33;0.87;;;12.00;99.90;;;;;;7389642;19;20147;-74
2023/01/07 04:50:21;;;;;;;1.03;0.83;;;11.90;99.90;;;;;;7387605;19;20166;-74
2023/01/07 04:52:47;;;;;;;2.50;0.83;;;11.90;99.90;;;;;;7389757;19;20471;-73
2023/01/07 04:55:12;;;;;;;0.60;0.60;;;11.80;99.90;;;;;;7391236;19;20138;-73
2023/01/07 04:57:38;;;;;;;0.70;0.70;;;11.80;99.90;;;;;;7390733;19;20142;-75
2023/01/07 05:00:06;;;;;;;0.90;0.80;;;11.80;99.90;;;;;;7381048;19;20682;-74
2023/01/07 05:02:32;;;;;;;1.63;0.70;;;11.40;99.90;;;;;;7392214;19;20139;-74
2023/01/07 05:04:57;;;;;;;0.70;0.70;;;11.50;99.90;;;;;;7387502;19;20510;-73
2023/01/07 05:07:23;;;;;;;0.73;0.73;;;11.70;99.90;;;;;;7387689;19;20146;-74
2023/01/07 05:09:49;;;;;;;0.70;0.67;;;11.80;99.90;;;;;;7390048;19;20154;-73
2023/01/07 05:12:14;;;;;;;1.45;0.80;;;11.70;99.90;;;;;;7389363;19;20138;-74
2023/01/07 05:14:42;;;;;;;0.83;0.80;;;11.70;99.90;;;;;;7390756;19;20143;-72
2023/01/07 05:17:08;;;;;;;0.93;0.90;;;11.60;99.90;;;;;;7386889;19;20130;-75
2023/01/07 05:19:34;;;;;;;0.73;0.73;;;11.70;99.90;;;;;;7385348;19;20133;-73
2023/01/07 05:21:59;;;;;;;0.90;0.70;;;11.70;99.90;;;;;;7384058;19;20600;-74
2023/01/07 05:24:25;;;;;;;1.20;1.07;;;11.80;99.90;;;;;;7389594;19;20147;-73
2023/01/07 05:26:51;;;;;;;0.80;0.80;;;11.80;99.90;;;;;;7390829;19;20139;-73
2023/01/07 05:29:16;;;;;;;1.00;0.80;;;11.70;99.90;;;;;;7388291;19;20874;-74
2023/01/07 05:31:42;;;;;;;0.90;0.70;;;11.60;99.90;;;;;;7389720;19;20583;-74
2023/01/07 05:34:08;;;;;;;1.30;0.87;;;11.70;99.90;;;;;;7384456;19;20178;-74
2023/01/07 05:36:34;;;;;;;1.10;0.80;;;11.70;99.90;;;;;;7383370;19;20139;-74
2023/01/07 05:39:00;;;;;;;1.40;0.90;;;11.80;99.90;;;;;;7387539;19;20225;-74
2023/01/07 05:41:25;;;;;;;1.00;0.70;;;11.80;99.90;;;;;;7385474;19;20138;-72
2023/01/07 05:43:51;;;;;;;0.87;0.87;;;11.80;99.90;;;;;;7386061;19;20481;-73
2023/01/07 05:46:17;;;;;;;0.70;0.70;;;11.90;99.90;;;;;;7384173;19;20478;-73
2023/01/07 05:48:43;;;;;;;0.70;0.70;;;11.80;99.90;;;;;;7388849;19;20142;-74
2023/01/07 05:51:09;;;;;;;1.00;0.90;;;11.90;99.90;;;;;;7387420;19;20690;-74
2023/01/07 05:53:35;;;;;;;1.23;1.00;;;11.80;99.90;;;;;;7387440;19;20210;-75
2023/01/07 05:56:01;;;;;;;1.17;1.00;;;11.80;99.90;;;;;;7389319;19;20483;-74
2023/01/07 05:58:27;;;;;;;1.50;0.77;;;11.70;99.90;;;;;;7388894;19;20178;-74
2023/01/07 06:00:53;;;;;;;1.00;0.90;;;11.80;99.90;;;;;;7387257;19;20595;-74
2023/01/07 06:03:20;;;;;;;1.23;0.97;;;11.70;99.90;;;;;;7388281;19;20627;-75
2023/01/07 06:05:46;;;;;;;0.80;0.80;;;11.60;99.90;;;;;;7385764;19;20145;-74
2023/01/07 06:08:12;;;;;;;1.53;1.03;;;11.60;99.90;;;;;;7386583;19;20155;-73
2023/01/07 06:10:38;;;;;;;1.00;0.90;;;11.60;99.90;;;;;;7387069;19;20168;-73
2023/01/07 06:13:04;;;;;;;0.90;0.80;;;11.80;99.90;;;;;;7384896;19;20142;-74
2023/01/07 06:15:30;;;;;;;1.03;0.90;;;11.50;99.90;;;;;;7384188;19;20507;-73
2023/01/07 06:17:56;;;;;;;1.50;0.90;;;11.60;99.90;;;;;;7386336;19;20502;-73
2023/01/07 06:20:23;;;;;;;1.43;1.20;;;11.70;99.90;;;;;;7386421;19;20138;-73
2023/01/07 06:22:49;;;;;;;1.23;1.00;;;11.70;99.90;;;;;;7385738;19;20152;-74
2023/01/07 06:25:14;;;;;;;1.30;0.90;;;11.70;99.90;;;;;;7384487;19;23126;-73
2023/01/07 06:27:40;;;;;;;1.20;0.93;;;11.60;99.90;;;;;;7388392;19;20154;-72
2023/01/07 06:30:10;;;;;;;0.73;0.63;;;11.60;99.90;;;;;;7391040;19;20233;-73
2023/01/07 06:32:42;;;;;;;1.10;0.80;;;11.60;99.90;;;;;;7390597;19;20174;-75
2023/01/07 06:35:10;;;;;;;1.13;1.00;;;11.40;99.90;;;;;;7395130;19;20154;-74
2023/01/07 06:37:36;;;;;;;0.93;0.87;;;11.60;99.90;;;;;;7395436;19;20683;-73
2023/01/07 06:40:03;;;;;;;1.13;1.00;;;11.50;99.90;;;;;;7390270;19;20154;-75
2023/01/07 06:42:29;;;;;;;0.80;0.80;;;11.50;99.90;;;;;;7390709;19;20254;-73
2023/01/07 06:44:54;;;;;;;1.27;1.00;;;11.60;99.90;;;;;;7393796;19;20139;-74
2023/01/07 06:47:20;;;;;;;1.57;0.87;;;11.60;99.90;;;;;;7391053;19;20154;-74
2023/01/07 06:49:46;;;;;;;0.80;0.77;;;11.70;99.90;;;;;;7392087;19;20165;-73
2023/01/07 06:52:12;;;;;;;1.10;1.00;;;11.70;99.90;;;;;;7392365;19;20146;-73
2023/01/07 06:54:37;;;;;;;1.00;0.90;;;11.70;99.90;;;;;;7391676;19;20147;-73
2023/01/07 06:57:03;;;;;;;0.70;0.63;;;11.50;99.90;;;;;;7392505;19;20134;-75
2023/01/07 06:59:29;;;;;;;1.07;0.80;;;11.50;99.90;;;;;;7392374;19;20139;-74
2023/01/07 07:01:55;;;;;;;0.97;0.80;;;11.50;99.90;;;;;;7392418;19;20136;-73
2023/01/07 07:04:20;;;;;;;0.70;0.70;;;11.40;99.90;;;;;;7393084;19;20599;-75
2023/01/07 07:06:46;;;;;;;0.90;0.87;;;11.50;99.90;;;;;;7391521;19;20154;-75
2023/01/07 07:09:12;;;;;;;1.20;0.80;;;11.50;99.90;;;;;;7391928;19;20541;-74
2023/01/07 07:11:38;;;;;;;1.00;0.77;;;11.40;99.90;;;;;;7395114;19;20153;-74
2023/01/07 07:14:03;;;;;;;0.87;0.60;;;11.30;99.90;;;;;;7391820;19;20130;-74
2023/01/07 07:16:29;;;;;;;2.00;0.80;;;11.40;99.90;;;;;;7391171;19;20134;-74
2023/01/07 07:18:55;;;;;;;0.93;0.80;;;11.40;99.90;;;;;;7392063;19;20142;-73
2023/01/07 07:21:20;;;;;;;1.07;0.90;;;11.30;99.90;;;;;;7385269;19;20510;-74
2023/01/07 07:23:46;;;;;;;0.97;0.80;;;11.40;99.90;;;;;;7391215;19;20134;-74
2023/01/07 07:26:12;;;;;;;0.87;0.80;;;11.50;99.90;;;;;;7392515;19;20131;-74
2023/01/07 07:28:41;;;;;;;0.80;0.70;;;11.30;99.90;;;;;;7392847;19;20139;-73
2023/01/07 07:31:08;;;;;;;1.37;0.87;;;11.10;99.90;;;;;;7392925;19;20142;-73
2023/01/07 07:33:34;;;;;;;0.80;0.80;;;11.30;99.90;;;;;;7391417;19;20149;-76
2023/01/07 07:36:00;;;;;;;1.03;0.80;;;11.10;99.90;;;;;;7391957;19;20470;-74
2023/01/07 07:38:26;;;;;;;1.90;0.77;;;11.10;99.90;;;;;;7391603;19;20590;-73
2023/01/07 07:40:51;;;;;;;0.70;0.67;;;11.20;99.90;;;;;;7387153;19;20231;-73
2023/01/07 07:43:17;;;;;;;0.70;0.70;;;11.30;99.90;;;;;;7389131;19;20594;-73
2023/01/07 07:45:43;;;;;;;0.90;0.63;;;11.40;99.90;;;;;;7389836;19;20158;-73
2023/01/07 07:48:12;;;;;;;1.00;0.80;;;11.30;99.90;;;;;;7391050;19;20141;-73
2023/01/07 07:50:38;;;;;;;0.77;0.70;;;11.40;99.90;;;;;;7390410;19;20138;-73
2023/01/07 07:53:08;;;;;;;0.83;0.70;;;11.40;99.90;;;;;;7389025;19;20150;-75
2023/01/07 07:55:38;;;;;;;2.83;0.70;;;11.50;99.90;;;;;;7389907;19;20134;-73
2023/01/07 07:58:05;;;;;;;0.97;0.80;;;11.50;99.90;;;;;;7391253;19;20134;-73
2023/01/07 08:00:31;;;;;;;0.60;0.60;;;11.50;99.90;;;;;;7385275;19;20161;-72
2023/01/07 08:02:58;;;;;;;2.53;0.70;;;11.50;99.90;;;;;;7388437;19;20673;-73
2023/01/07 08:05:24;;;;;;;0.77;0.70;;;11.50;99.90;;;;;;7392600;19;20130;-74
2023/01/07 08:07:50;;;;;;;1.03;0.70;;;11.60;99.90;;;;;;7389996;19;20212;-73
2023/01/07 08:10:16;;;;;;;1.37;0.70;;;11.50;99.90;;;;;;7389315;19;20134;-72
2023/01/07 08:12:45;;;;;;;0.90;0.83;;;11.60;99.90;;;;;;7390274;19;20151;-73
2023/01/07 08:15:11;;;;;;;0.83;0.80;;;11.50;99.90;;;;;;7389829;19;20143;-73
2023/01/07 08:17:37;;;;;;;0.90;0.70;;;11.60;99.90;;;;;;7391544;19;20198;-72
2023/01/07 08:20:06;;;;;;;0.73;0.73;;;11.60;99.90;;;;;;7388533;19;20206;-74
2023/01/07 08:22:32;;;;;;;1.13;0.80;;;11.50;99.90;;;;;;7389857;19;20162;-74
2023/01/07 08:24:58;;;;;;;0.60;0.60;;;11.50;99.90;;;;;;7390043;19;20141;-73
2023/01/07 08:27:26;;;;;;;0.80;0.73;;;11.50;99.90;;;;;;7390162;19;20127;-74
2023/01/07 08:29:53;;;;;;;1.10;0.60;;;11.50;99.90;;;;;;7390559;19;20153;-74
2023/01/07 08:32:19;;;;;;;0.97;0.70;;;11.50;99.90;;;;;;7386189;19;20163;-74
2023/01/07 08:34:48;;;;;;;0.70;0.70;;;11.50;99.90;;;;;;7387966;19;20147;-75
2023/01/07 08:37:14;;;;;;;0.87;0.73;;;11.50;99.90;;;;;;7389668;19;20170;-74
2023/01/07 08:39:39;;;;;;;12.37;7.70;;;11.50;99.90;;;;;;7391016;19;20190;-74
2023/01/07 08:42:05;;;;;;;6.47;3.97;;;11.60;99.90;;;;;;7386446;19;20170;-73
2023/01/07 08:44:33;;;;;;;2.67;1.63;;;11.60;99.90;;;;;;7389136;19;20146;-74
2023/01/07 08:47:05;;;;;;;2.27;1.10;;;11.70;99.90;;;;;;7390510;19;20150;-76
2023/01/07 08:49:31;;;;;;;1.50;1.00;;;11.70;99.90;;;;;;7390460;19;20185;-75
2023/01/07 08:51:57;;;;;;;2.10;1.00;;;11.80;99.90;;;;;;7389817;19;20866;-74
2023/01/07 08:54:22;;;;;;;1.20;1.00;;;11.70;99.90;;;;;;7388729;19;20139;-74
2023/01/07 08:56:48;;;;;;;2.00;1.10;;;11.70;99.90;;;;;;7388751;19;20214;-75
2023/01/07 08:59:14;;;;;;;1.00;0.80;;;11.70;99.90;;;;;;7389750;19;20162;-75
2023/01/07 09:01:39;;;;;;;1.13;1.03;;;11.70;99.90;;;;;;7386355;19;20142;-75
2023/01/07 09:04:05;;;;;;;0.90;0.90;;;11.70;99.90;;;;;;7388917;19;20877;-74
2023/01/07 09:06:31;;;;;;;0.93;0.83;;;11.90;99.90;;;;;;7389072;19;20154;-74
2023/01/07 09:08:57;;;;;;;1.57;1.00;;;11.90;99.90;;;;;;7390569;19;20135;-74
2023/01/07 09:11:23;;;;;;;1.17;0.90;;;11.90;99.90;;;;;;7389098;19;20136;-73
2023/01/07 09:13:48;;;;;;;1.87;1.00;;;11.80;99.90;;;;;;7387115;19;20201;-74
2023/01/07 09:16:14;;;;;;;1.07;0.90;;;11.80;99.90;;;;;;7388239;19;20213;-75
2023/01/07 09:18:40;;;;;;;1.10;1.00;;;11.90;99.90;;;;;;7386791;19;20538;-74
2023/01/07 09:21:06;;;;;;;0.93;0.90;;;11.90;99.90;;;;;;7386792;19;20210;-75
2023/01/07 09:23:31;;;;;;;1.73;0.80;;;11.60;99.90;;;;;;7380897;19;20138;-75
2023/01/07 09:25:57;;;;;;;1.57;0.90;;;11.60;99.90;;;;;;7382659;19;20469;-76
2023/01/07 09:28:23;;;;;;;1.60;1.17;;;11.70;99.90;;;;;;7381060;19;20127;-74
2023/01/07 09:30:48;;;;;;;1.40;1.20;;;11.70;99.90;;;;;;7383568;19;20139;-74
2023/01/07 09:33:17;;;;;;;1.37;1.17;;;11.60;99.90;;;;;;7377352;19;20241;-73
2023/01/07 09:35:42;;;;;;;1.83;1.10;;;11.70;99.90;;;;;;7387727;19;20144;-74
2023/01/07 09:38:08;;;;;;;1.17;1.00;;;11.70;99.90;;;;;;7386533;19;20491;-73
2023/01/07 09:40:40;;;;;;;1.27;1.03;;;11.80;99.90;;;;;;7386721;19;20595;-75
2023/01/07 09:43:27;;;;;;;1.57;1.20;;;11.90;99.90;;;;;;7389580;19;20521;-75
2023/01/07 09:45:57;;;;;;;1.43;1.30;;;11.60;99.90;;;;;;7388379;19;20154;-74
2023/01/07 09:48:43;;;;;;;2.50;1.40;;;11.70;99.90;;;;;;7390041;19;20127;-76
2023/01/07 09:51:27;;;;;;;1.53;1.30;;;11.90;99.90;;;;;;7392738;19;20226;-75
2023/01/07 09:53:57;;;;;;;1.30;1.20;;;11.80;99.90;;;;;;7390125;19;20151;-78
2023/01/07 09:56:27;;;;;;;1.83;1.53;;;11.70;99.90;;;;;;7391230;19;20138;-74
2023/01/07 09:58:54;;;;;;;2.63;1.60;;;11.60;99.90;;;;;;7384177;19;20158;-74
2023/01/07 10:01:43;;;;;;;1.87;1.40;;;11.70;99.90;;;;;;7383098;19;20526;-75
2023/01/07 10:04:36;;;;;;;2.17;1.97;;;11.80;99.90;;;;;;7391913;19;20158;-73
2023/01/07 10:07:32;;;;;;;1.77;1.60;;;11.80;99.90;;;;;;7398116;19;20684;-73
2023/01/07 10:10:23;;;;;;;2.70;1.80;;;11.60;99.90;;;;;;7395589;19;20138;-75
2023/01/07 10:12:55;;;;;;;3.07;2.00;;;11.70;99.90;;;;;;7393510;19;20168;-74
2023/01/07 10:15:48;;;;;;;3.63;2.17;;;11.70;99.90;;;;;;7390915;19;20646;-74
2023/01/07 10:18:33;;;;;;;3.00;2.00;;;11.70;99.90;;;;;;7396908;19;20127;-74
2023/01/07 10:21:21;;;;;;;2.90;2.10;;;11.90;99.90;;;;;;7383727;19;20169;-75
2023/01/07 10:24:02;;;;;;;3.63;2.13;;;11.90;99.90;;;;;;7387960;19;20146;-75
2023/01/07 10:26:41;;;;;;;2.63;1.77;;;12.00;99.90;;;;;;7393728;19;20809;-75
2023/01/07 10:29:27;;;;;;;3.33;1.97;;;11.70;99.90;;;;;;7396480;19;20145;-76
2023/01/07 10:31:57;;;;;;;4.68;2.17;;;11.80;99.90;;;;;;7392467;19;20193;-75
2023/01/07 10:34:30;;;;;;;2.93;2.07;;;12.00;99.90;;;;;;7389028;19;20220;-74
2023/01/07 10:37:10;;;;;;;2.60;2.17;;;11.90;99.90;;;;;;7395961;19;20146;-75
2023/01/07 10:39:44;;;;;;;2.53;2.10;;;11.70;99.90;;;;;;7395455;19;20142;-75
2023/01/07 10:42:36;;;;;;;2.47;1.80;;;11.70;99.90;;;;;;7393799;19;20141;-75
2023/01/07 10:45:20;;;;;;;1.97;1.60;;;11.90;99.90;;;;;;7394110;19;20145;-75
2023/01/07 10:47:55;;;;;;;1.83;1.73;;;12.10;99.90;;;;;;7390492;19;20146;-74
2023/01/07 10:50:44;;;;;;;1.77;1.63;;;12.20;99.90;;;;;;7394874;19;20142;-77
2023/01/07 10:53:21;;;;;;;3.40;2.20;;;11.90;99.90;;;;;;7392262;19;20138;-75
2023/01/07 10:56:03;;;;;;;2.00;1.70;;;11.90;99.90;;;;;;7392877;19;20216;-77
2023/01/07 10:58:38;;;;;;;2.60;1.90;;;11.90;99.90;;;;;;7392892;19;20154;-75
2023/01/07 11:01:04;;;;;;;3.53;2.20;;;11.90;99.90;;;;;;7390310;19;20146;-74
2023/01/07 11:03:30;;;;;;;3.53;2.57;;;11.90;99.90;;;;;;7391185;19;20154;-74
2023/01/07 11:06:06;;;;;;;3.07;2.40;;;11.90;99.90;;;;;;7386842;19;20149;-74
2023/01/07 11:08:37;;;;;;;2.38;2.17;;;12.00;99.90;;;;;;7390354;19;20153;-75
2023/01/07 11:11:04;;;;;;;3.47;2.20;;;12.10;99.90;;;;;;7391499;19;20142;-74
2023/01/07 11:13:32;;;;;;;3.33;2.63;;;12.10;99.90;;;;;;7389819;19;20155;-74
2023/01/07 11:16:17;;;;;;;2.87;2.40;;;12.20;99.90;;;;;;7387884;19;20143;-74
2023/01/07 11:18:53;;;;;;;2.70;2.40;;;12.40;99.90;;;;;;7391240;19;20147;-76
2023/01/07 11:21:42;;;;;;;4.93;2.47;;;12.40;99.90;;;;;;7391614;19;20146;-74
2023/01/07 11:24:31;;;;;;;5.83;2.40;;;12.20;99.90;;;;;;7392749;19;20135;-75
2023/01/07 11:27:14;;;;;;;2.83;2.30;;;12.40;99.90;;;;;;7387700;19;20151;-75
2023/01/07 11:29:44;;;;;;;2.17;1.93;;;12.40;99.90;;;;;;7388462;19;20154;-74
2023/01/07 11:32:39;;;;;;;2.63;2.10;;;12.70;99.90;;;;;;7390543;19;20155;-75
2023/01/07 11:35:17;;;;;;;4.40;2.10;;;12.60;99.90;;;;;;7386249;19;20158;-74
2023/01/07 11:37:46;;;;;;;2.65;2.33;;;12.60;99.90;;;;;;7388283;19;20143;-75
2023/01/07 11:40:22;;;;;;;2.47;2.07;;;12.60;99.90;;;;;;7385208;19;20135;-77
2023/01/07 11:42:52;;;;;;;2.03;1.80;;;12.70;99.90;;;;;;7387996;19;20150;-76
2023/01/07 11:45:19;;;;;;;2.43;2.23;;;12.80;99.90;;;;;;7387002;19;20140;-75
2023/01/07 11:47:58;;;;;;;2.23;2.03;;;12.80;99.90;;;;;;7382693;19;20159;-74
2023/01/07 11:50:42;;;;;;;1.70;1.50;;;12.80;99.90;;;;;;7390940;19;20606;-75
2023/01/07 11:53:16;;;;;;;2.97;2.07;;;12.80;99.90;;;;;;7389082;19;20131;-76
2023/01/07 11:55:54;;;;;;;2.00;1.80;;;12.80;99.90;;;;;;7393345;19;20169;-74
2023/01/07 11:58:20;;;;;;;2.27;1.80;;;12.90;99.90;;;;;;7395063;19;20138;-74
2023/01/07 12:01:01;;;;;;;3.27;2.10;;;13.10;99.90;;;;;;7390268;19;20482;-74
2023/01/07 12:03:27;;;;;;;2.63;1.83;;;13.10;99.90;;;;;;7392467;19;20139;-75
2023/01/07 12:06:04;;;;;;;2.73;2.17;;;13.20;99.90;;;;;;7391409;19;20688;-77
2023/01/07 12:08:31;;;;;;;2.17;1.97;;;13.20;99.90;;;;;;7391210;19;20152;-75
2023/01/07 12:11:04;;;;;;;2.50;1.87;;;13.20;99.90;;;;;;7394204;19;20146;-74
2023/01/07 12:13:31;;;;;;;2.50;2.00;;;13.20;99.90;;;;;;7389308;19;20139;-78
2023/01/07 12:16:04;;;;;;;3.35;2.20;;;13.20;99.90;;;;;;7383707;19;20158;-75
2023/01/07 12:18:33;;;;;;;4.93;2.03;;;13.30;99.90;;;;;;7386143;19;20154;-75
2023/01/07 12:21:19;;;;;;;2.60;2.10;;;13.30;99.90;;;;;;7386822;19;20615;-73
2023/01/07 12:24:24;;;;;;;2.05;1.75;;;13.10;99.90;;;;;;7388156;19;20135;-73
2023/01/07 12:27:00;;;;;;;2.77;1.90;;;13.20;99.90;;;;;;7387084;19;20142;-75
2023/01/07 12:30:04;;;;;;;2.50;2.13;;;13.30;99.90;;;;;;7387715;19;20493;-74
2023/01/07 12:32:39;;;;;;;2.20;2.00;;;13.20;99.90;;;;;;7387996;19;20178;-78
2023/01/07 12:35:13;;;;;;;3.28;2.22;;;13.30;99.90;;;;;;7390603;19;20138;-73
2023/01/07 12:38:01;;;;;;;2.63;2.15;;;13.20;99.90;;;;;;7390461;19;20593;-73
2023/01/07 12:40:43;;;;;;;2.70;2.30;;;13.30;99.90;;;;;;7388716;19;20203;-74
2023/01/07 12:43:33;;;;;;;2.93;2.30;;;13.30;99.90;;;;;;7392740;19;20138;-73
2023/01/07 12:46:11;;;;;;;3.13;2.17;;;13.40;99.90;;;;;;7391241;19;20146;-73
2023/01/07 12:49:03;;;;;;;3.87;2.33;;;13.40;99.90;;;;;;7390945;19;20134;-75
2023/01/07 12:51:59;;;;;;;2.40;2.20;;;13.50;99.90;;;;;;7387719;19;20151;-74
2023/01/07 12:54:51;;;;;;;2.22;1.95;;;13.50;99.90;;;;;;7389574;19;20846;-75
2023/01/07 12:57:33;;;;;;;2.70;2.27;;;13.60;99.90;;;;;;7390533;19;20226;-73
2023/01/07 13:00:07;;;;;;;2.72;2.13;;;13.60;99.90;;;;;;7387559;19;20127;-74
2023/01/07 13:02:54;;;;;;;2.67;2.33;;;13.70;99.90;;;;;;7387304;19;20163;-73
2023/01/07 13:05:39;;;;;;;2.47;2.17;;;13.80;99.90;;;;;;7387349;19;20146;-73
2023/01/07 13:08:08;;;;;;;3.45;2.55;;;13.70;99.90;;;;;;7387599;19;20146;-73
2023/01/07 13:10:44;;;;;;;2.57;2.10;;;13.70;99.90;;;;;;7387709;19;20184;-73
2023/01/07 13:13:30;;;;;;;2.70;2.33;;;13.80;99.90;;;;;;7386010;19;20138;-75
2023/01/07 13:15:56;;;;;;;2.83;2.03;;;13.60;99.90;;;;;;7387258;19;20646;-74